createdAt,value
2018-02-06T00:00:36.520Z,101850
2018-02-06T00:03:02.581Z,101848
2018-02-06T00:05:28.649Z,101844
2018-02-06T00:07:55.014Z,101843
2018-02-06T00:10:21.085Z,101854
2018-02-06T00:12:47.906Z,101845
2018-02-06T00:15:13.993Z,101844
2018-02-06T00:17:40.068Z,101849
2018-02-06T00:20:06.136Z,101841
2018-02-06T00:22:49.596Z,101839
2018-02-06T00:25:16.168Z,101828
2018-02-06T00:27:42.979Z,101828
2018-02-06T00:30:09.053Z,101828
2018-02-06T00:32:35.135Z,101823
2018-02-06T00:35:01.220Z,101828
2018-02-06T00:37:27.302Z,101822
2018-02-06T00:39:53.390Z,101817
2018-02-06T00:42:19.470Z,101813
2018-02-06T00:44:46.273Z,101819
2018-02-06T00:47:12.347Z,101810
2018-02-06T00:49:38.421Z,101807
2018-02-06T00:52:04.777Z,101794
2018-02-06T00:54:30.842Z,101804
2018-02-06T00:56:56.905Z,101793
2018-02-06T00:59:22.969Z,101786
2018-02-06T01:01:49.793Z,101784
2018-02-06T01:04:15.877Z,101775
2018-02-06T01:06:41.937Z,101766
2018-02-06T01:09:08.017Z,101770
2018-02-06T01:11:34.085Z,101758
2018-02-06T01:14:00.200Z,101755
2018-02-06T01:16:26.289Z,101736
2018-02-06T01:18:52.367Z,101752
2018-02-06T01:21:18.470Z,101742
2018-02-06T01:23:44.529Z,101748
2018-02-06T01:26:11.385Z,101741
2018-02-06T01:28:37.482Z,101733
2018-02-06T01:31:04.295Z,101734
2018-02-06T01:33:30.362Z,101725
2018-02-06T01:35:56.470Z,101718
2018-02-06T01:38:23.293Z,101725
2018-02-06T01:40:49.361Z,101720
2018-02-06T01:43:16.198Z,101720
2018-02-06T01:45:42.997Z,101717
2018-02-06T01:48:09.073Z,101712
2018-02-06T01:50:42.914Z,101705
2018-02-06T01:53:08.992Z,101708
2018-02-06T01:55:35.123Z,101704
2018-02-06T01:58:01.921Z,101698
2018-02-06T02:00:27.998Z,101683
2018-02-06T02:02:54.078Z,101682
2018-02-06T02:05:20.165Z,101685
2018-02-06T02:07:46.239Z,101677
2018-02-06T02:10:12.310Z,101674
2018-02-06T02:12:38.605Z,101675
2018-02-06T02:15:04.677Z,101673
2018-02-06T02:17:30.753Z,101654
2018-02-06T02:19:56.821Z,101662
2018-02-06T02:22:22.888Z,101656
2018-02-06T02:24:48.978Z,101657
2018-02-06T02:27:15.048Z,101651
2018-02-06T02:29:41.130Z,101642
2018-02-06T02:32:07.221Z,101642
2018-02-06T02:34:34.045Z,101641
2018-02-06T02:37:00.122Z,101629
2018-02-06T02:39:26.246Z,101638
2018-02-06T04:38:47.266Z,101517
2018-02-06T04:41:13.343Z,101519
2018-02-06T04:43:39.446Z,101519
2018-02-06T04:46:05.517Z,101515
2018-02-06T04:48:31.573Z,101516
2018-02-06T04:50:57.645Z,101515
2018-02-06T04:53:23.722Z,101512
2018-02-06T04:55:49.845Z,101504
2018-02-06T04:58:15.917Z,101507
2018-02-06T05:00:42.452Z,101501
2018-02-06T05:03:08.533Z,101504
2018-02-06T05:05:34.601Z,101505
2018-02-06T05:08:00.699Z,101503
2018-02-06T05:10:26.756Z,101503
2018-02-06T05:12:52.845Z,101503
2018-02-06T05:15:18.931Z,101487
2018-02-06T05:17:45.008Z,101486
2018-02-06T05:20:11.844Z,101487
2018-02-06T05:22:37.913Z,101481
2018-02-06T05:25:03.969Z,101483
2018-02-06T05:27:30.477Z,101481
2018-02-06T05:29:56.597Z,101486
2018-02-06T05:32:22.653Z,101489
2018-02-06T05:34:48.733Z,101483
2018-02-06T05:37:14.799Z,101470
2018-02-06T05:39:40.867Z,101485
2018-02-06T05:42:07.693Z,101481
2018-02-06T05:44:33.753Z,101484
2018-02-06T05:46:59.809Z,101484
2018-02-06T05:49:25.881Z,101480
2018-02-06T05:51:52.685Z,101472
2018-02-06T05:54:18.750Z,101476
2018-02-06T05:56:44.825Z,101466
2018-02-06T05:59:10.896Z,101466
2018-02-06T06:01:37.732Z,101466
2018-02-06T06:04:04.537Z,101454
2018-02-06T06:06:30.622Z,101459
2018-02-06T06:08:56.693Z,101450
2018-02-06T06:11:22.765Z,101458
2018-02-06T06:13:48.941Z,101448
2018-02-06T06:16:15.011Z,101448
2018-02-06T06:18:41.088Z,101439
2018-02-06T06:21:07.670Z,101435
2018-02-06T06:23:34.481Z,101437
2018-02-06T06:26:00.566Z,101428
2018-02-06T06:28:26.667Z,101422
2018-02-06T06:30:53.501Z,101429
2018-02-06T06:33:20.344Z,101433
2018-02-06T06:35:47.170Z,101424
2018-02-06T06:38:13.241Z,101429
2018-02-06T06:40:39.309Z,101418
2018-02-06T06:43:05.410Z,101420
2018-02-06T06:45:31.468Z,101422
2018-02-06T06:47:57.547Z,101425
2018-02-06T06:50:23.621Z,101407
2018-02-06T06:52:49.693Z,101411
2018-02-06T06:55:15.857Z,101405
2018-02-06T06:57:41.926Z,101414
2018-02-06T07:00:08.005Z,101403
2018-02-06T07:02:34.089Z,101405
2018-02-06T07:05:00.166Z,101403
2018-02-06T07:07:26.239Z,101441
2018-02-06T07:09:52.301Z,101401
2018-02-06T07:12:18.413Z,101399
2018-02-06T07:14:44.502Z,101400
2018-02-06T07:17:11.330Z,101401
2018-02-06T07:19:38.170Z,101391
2018-02-06T07:22:04.277Z,101397
2018-02-06T07:24:30.639Z,101400
2018-02-06T07:26:57.460Z,101389
2018-02-06T07:29:23.541Z,101397
2018-02-06T07:31:49.636Z,101403
2018-02-06T07:34:15.694Z,101399
2018-02-06T07:36:41.783Z,101401
2018-02-06T07:39:07.911Z,101399
2018-02-06T07:41:34.713Z,101402
2018-02-06T07:44:00.789Z,101402
2018-02-06T07:46:26.862Z,101399
2018-02-06T07:48:52.933Z,101395
2018-02-06T07:51:19.001Z,101400
2018-02-06T07:53:45.085Z,101389
2018-02-06T07:56:11.433Z,101399
2018-02-06T07:58:37.478Z,101389
2018-02-06T08:01:03.553Z,101392
2018-02-06T08:03:30.357Z,101392
2018-02-06T08:05:56.425Z,101395
2018-02-06T08:08:22.498Z,101392
2018-02-06T08:10:48.649Z,101389
2018-02-06T08:13:14.744Z,101392
2018-02-06T08:15:40.827Z,101387
2018-02-06T08:18:06.945Z,101395
2018-02-06T08:20:33.029Z,101384
2018-02-06T08:22:59.093Z,101386
2018-02-06T08:25:25.546Z,101389
2018-02-06T08:27:51.632Z,101391
2018-02-06T08:30:17.765Z,101387
2018-02-06T08:32:43.866Z,101383
2018-02-06T08:35:09.930Z,101394
2018-02-06T08:37:36.833Z,101395
2018-02-06T08:40:02.933Z,101392
2018-02-06T08:42:29.532Z,101383
2018-02-06T08:44:56.357Z,101386
2018-02-06T08:47:22.438Z,101379
2018-02-06T08:49:48.526Z,101378
2018-02-06T08:52:15.568Z,101364
2018-02-06T08:54:42.382Z,101372
2018-02-06T08:57:08.441Z,101369
2018-02-06T08:59:35.242Z,101366
2018-02-06T09:02:02.014Z,101370
2018-02-06T09:04:28.081Z,101368
2018-02-06T09:06:54.153Z,101359
2018-02-06T09:09:20.226Z,101371
2018-02-06T09:11:46.321Z,101365
2018-02-06T09:14:13.254Z,101376
2018-02-06T09:16:39.327Z,101366
2018-02-06T09:19:05.398Z,101362
2018-02-06T09:21:31.645Z,101365
2018-02-06T09:23:57.733Z,101368
2018-02-06T09:26:23.809Z,101347
2018-02-06T09:28:50.628Z,101349
2018-02-06T09:31:16.689Z,101349
2018-02-06T09:33:42.749Z,101342
2018-02-06T09:36:08.841Z,101338
2018-02-06T09:38:34.910Z,101345
2018-02-06T09:41:00.993Z,101338
2018-02-06T09:43:27.073Z,101346
2018-02-06T09:45:54.653Z,101340
2018-02-06T09:48:20.722Z,101347
2018-02-06T09:50:46.802Z,101339
2018-02-06T09:53:13.625Z,101339
2018-02-06T09:55:39.681Z,101341
2018-02-06T09:58:05.754Z,101331
2018-02-06T10:00:31.842Z,101328
2018-02-06T10:02:57.914Z,101331
2018-02-06T10:05:23.989Z,101320
2018-02-06T10:07:50.240Z,101318
2018-02-06T10:10:16.309Z,101319
2018-02-06T10:12:42.380Z,101317
2018-02-06T10:15:08.481Z,101316
2018-02-06T10:17:35.296Z,101308
2018-02-06T10:20:02.120Z,101311
2018-02-06T10:22:28.181Z,101303
2018-02-06T10:24:55.618Z,101304
2018-02-06T10:27:21.683Z,101294
2018-02-06T10:29:47.749Z,101291
2018-02-06T10:32:13.830Z,101290
2018-02-06T10:34:39.901Z,101294
2018-02-06T10:37:05.965Z,101290
2018-02-06T10:39:32.777Z,101283
2018-02-06T10:41:58.846Z,101279
2018-02-06T10:44:24.913Z,101283
2018-02-06T10:46:50.993Z,101281
2018-02-06T10:49:17.057Z,101272
2018-02-06T10:51:43.117Z,101272
2018-02-06T10:54:09.449Z,101270
2018-02-06T10:56:36.617Z,101263
2018-02-06T10:59:02.751Z,101257
2018-02-06T11:01:28.773Z,101271
2018-02-06T11:03:54.836Z,101262
2018-02-06T11:06:20.928Z,101254
2018-02-06T11:08:46.989Z,101251
2018-02-06T11:11:13.051Z,101244
2018-02-06T11:13:39.881Z,101247
2018-02-06T11:16:05.965Z,101247
2018-02-06T11:18:32.042Z,101248
2018-02-06T11:20:58.174Z,101240
2018-02-06T11:23:24.996Z,101249
2018-02-06T11:25:51.085Z,101246
2018-02-06T11:28:17.161Z,101243
2018-02-06T11:30:43.243Z,101245
2018-02-06T11:33:09.317Z,101235
2018-02-06T11:35:36.133Z,101239
2018-02-06T11:38:02.214Z,101224
2018-02-06T11:40:28.293Z,101234
2018-02-06T11:42:54.361Z,101226
2018-02-06T11:45:20.441Z,101228
2018-02-06T11:47:46.505Z,101229
2018-02-06T11:50:13.001Z,101232
2018-02-06T11:52:39.077Z,101222
2018-02-06T11:55:05.362Z,101219
2018-02-06T11:57:31.433Z,101212
2018-02-06T11:59:57.500Z,101215
2018-02-06T12:02:23.581Z,101212
2018-02-06T12:04:49.669Z,101200
2018-02-06T12:07:16.490Z,101204
2018-02-06T12:09:42.560Z,101191
2018-02-06T12:12:08.666Z,101191
2018-02-06T12:14:34.790Z,101189
2018-02-06T12:17:01.613Z,101185
2018-02-06T12:19:27.678Z,101186
2018-02-06T12:21:54.001Z,101187
2018-02-06T12:24:20.069Z,101182
2018-02-06T12:26:46.129Z,101177
2018-02-06T12:29:12.934Z,101171
2018-02-06T12:31:38.999Z,101171
2018-02-06T12:34:05.814Z,101181
2018-02-06T12:36:31.914Z,101166
2018-02-06T12:38:58.002Z,101172
2018-02-06T12:41:24.101Z,101163
2018-02-06T12:43:50.165Z,101164
2018-02-06T12:46:16.225Z,101164
2018-02-06T12:48:42.302Z,101154
2018-02-06T12:51:09.113Z,101143
2018-02-06T12:53:35.216Z,101136
2018-02-06T12:56:08.121Z,101134
2018-02-06T12:58:34.189Z,101128
2018-02-06T13:01:00.274Z,101127
2018-02-06T13:03:26.377Z,101133
2018-02-06T13:05:52.704Z,101125
2018-02-06T13:08:18.794Z,101115
2018-02-06T13:10:44.865Z,101112
2018-02-06T13:13:10.941Z,101114
2018-02-06T13:15:37.009Z,101108
2018-02-06T13:18:03.093Z,101116
2018-02-06T13:20:29.160Z,101100
2018-02-06T13:22:55.245Z,101093
2018-02-06T13:25:21.329Z,101099
2018-02-06T13:27:47.389Z,101095
2018-02-06T13:30:13.465Z,101093
2018-02-06T13:32:39.526Z,101085
2018-02-06T13:35:05.605Z,101084
2018-02-06T13:37:31.706Z,101086
2018-02-06T13:39:57.784Z,101082
2018-02-06T13:42:23.864Z,101078
2018-02-06T13:44:49.957Z,101078
2018-02-06T13:47:16.771Z,101075
2018-02-06T13:49:42.841Z,101075
2018-02-06T13:52:08.969Z,101065
2018-02-06T13:54:35.030Z,101069
2018-02-06T13:57:01.109Z,101069
2018-02-06T13:59:27.176Z,101058
2018-02-06T14:01:53.237Z,101050
2018-02-06T14:04:20.057Z,101046
2018-02-06T14:06:46.129Z,101047
2018-02-06T14:09:12.205Z,101057
2018-02-06T14:11:38.282Z,101050
2018-02-06T14:14:04.354Z,101059
2018-02-06T14:16:30.471Z,101043
2018-02-06T14:18:56.542Z,101040
2018-02-06T14:21:23.365Z,101040
2018-02-06T14:23:49.453Z,101033
2018-02-06T14:26:15.514Z,101036
2018-02-06T14:28:41.697Z,101037
2018-02-06T14:31:07.764Z,101032
2018-02-06T14:33:35.365Z,101031
2018-02-06T14:36:01.446Z,101038
2018-02-06T14:38:27.524Z,101027
2018-02-06T14:40:53.586Z,101026
2018-02-06T14:43:19.682Z,101021
2018-02-06T14:45:45.773Z,101019
2018-02-06T14:48:12.577Z,101023
2018-02-06T14:50:38.634Z,101028
2018-02-06T14:53:05.440Z,101021
2018-02-06T14:55:31.504Z,101025
2018-02-06T14:57:58.322Z,101020
2018-02-06T15:00:24.412Z,101019
2018-02-06T15:02:50.788Z,101013
2018-02-06T15:05:16.847Z,101013
2018-02-06T15:07:42.913Z,101006
2018-02-06T15:10:08.985Z,101004
2018-02-06T15:12:35.058Z,101005
2018-02-06T15:15:01.122Z,101011
2018-02-06T15:17:27.936Z,101011
2018-02-06T15:19:53.997Z,101011
2018-02-06T15:22:21.028Z,101014
2018-02-06T15:24:47.117Z,101005
2018-02-06T15:27:15.502Z,101005
2018-02-06T15:29:41.561Z,101002
2018-02-06T15:32:07.856Z,100990
2018-02-06T15:34:37.563Z,101003
2018-02-06T15:37:03.657Z,100997
2018-02-06T15:39:29.717Z,101001
2018-02-06T15:41:55.806Z,100995
2018-02-06T15:44:21.896Z,101001
2018-02-06T15:46:48.030Z,100965
2018-02-06T15:49:14.837Z,101004
2018-02-06T15:51:41.297Z,101011
2018-02-06T15:54:07.363Z,101004
2018-02-06T15:56:33.457Z,101006
2018-02-06T15:59:00.281Z,101000
2018-02-06T16:01:26.376Z,100997
2018-02-06T16:03:52.461Z,101005
2018-02-06T16:06:19.278Z,100995
2018-02-06T16:08:45.362Z,101001
2018-02-06T16:11:11.438Z,100991
2018-02-06T16:13:37.506Z,100993
2018-02-06T16:16:04.296Z,100993
2018-02-06T16:18:32.490Z,100988
2018-02-06T16:20:58.871Z,100992
2018-02-06T16:23:24.938Z,100992
2018-02-06T16:25:50.998Z,101000
2018-02-06T16:28:17.066Z,101000
2018-02-06T16:30:43.144Z,100993
2018-02-06T16:33:09.219Z,100986
2018-02-06T16:35:36.777Z,100997
2018-02-06T16:38:02.850Z,100995
2018-02-06T16:40:28.937Z,100999
2018-02-06T16:42:55.014Z,101002
2018-02-06T16:45:21.085Z,100998
2018-02-06T16:47:47.154Z,101000
2018-02-06T16:50:13.295Z,100795
2018-02-06T16:52:39.366Z,100998
2018-02-06T16:55:06.153Z,100988
2018-02-06T16:57:32.434Z,100992
2018-02-06T16:59:58.503Z,100999
2018-02-06T17:02:38.910Z,100990
2018-02-06T17:05:05.008Z,100995
2018-02-06T17:07:31.085Z,100990
2018-02-06T17:09:57.158Z,100980
2018-02-06T17:12:23.246Z,100981
2018-02-06T17:14:49.630Z,100985
2018-02-06T17:17:15.770Z,100971
2018-02-06T17:19:41.841Z,100983
2018-02-06T17:22:07.897Z,100984
2018-02-06T17:24:34.384Z,100994
2018-02-06T17:27:00.449Z,100986
2018-02-06T17:29:26.551Z,100991
2018-02-06T17:31:52.622Z,100982
2018-02-06T17:34:18.685Z,100974
2018-02-06T17:36:48.130Z,100975
2018-02-06T17:39:14.201Z,100972
2018-02-06T17:41:41.014Z,100967
2018-02-06T17:44:07.090Z,100971
2018-02-06T17:46:33.157Z,100971
2018-02-06T17:48:59.278Z,100973
2018-02-06T17:51:25.310Z,100973
2018-02-06T17:53:51.404Z,100975
2018-02-06T17:56:17.493Z,100979
2018-02-06T17:58:43.565Z,100972
2018-02-06T18:01:09.634Z,100972
2018-02-06T18:03:35.710Z,100975
2018-02-06T18:06:01.782Z,100981
2018-02-06T18:08:27.862Z,100980
2018-02-06T18:10:53.930Z,100979
2018-02-06T18:13:19.998Z,100980
2018-02-06T18:15:46.078Z,100987
2018-02-06T18:18:12.150Z,100987
2018-02-06T18:20:38.223Z,100991
2018-02-06T18:23:04.406Z,100989
2018-02-06T18:25:30.473Z,100980
2018-02-06T18:27:56.554Z,100977
2018-02-06T18:30:22.623Z,100987
2018-02-06T18:32:50.215Z,100988
2018-02-06T18:35:16.280Z,100998
2018-02-06T18:37:42.352Z,100992
2018-02-06T18:40:08.589Z,100984
2018-02-06T18:42:35.410Z,101001
2018-02-06T18:45:01.490Z,100994
2018-02-06T18:47:27.561Z,100995
2018-02-06T18:49:53.663Z,100995
2018-02-06T18:52:19.746Z,100988
2018-02-06T18:54:45.810Z,100997
2018-02-06T18:57:12.140Z,100990
2018-02-06T18:59:38.222Z,101001
2018-02-06T19:02:04.306Z,100985
2018-02-06T19:04:30.559Z,100998
2018-02-06T19:06:56.645Z,100990
2018-02-06T19:09:22.713Z,100989
2018-02-06T19:11:48.786Z,100985
2018-02-06T19:14:14.873Z,100994
2018-02-06T19:16:40.942Z,100988
2018-02-06T19:19:07.081Z,100996
2018-02-06T19:21:33.321Z,100999
2018-02-06T19:23:59.392Z,100998
2018-02-06T19:26:25.511Z,101002
2018-02-06T19:28:51.986Z,100998
2018-02-06T19:31:18.057Z,101000
2018-02-06T19:33:44.198Z,101000
2018-02-06T19:36:10.274Z,101004
2018-02-06T19:38:36.348Z,101001
2018-02-06T19:41:02.434Z,101001
2018-02-06T19:43:28.522Z,101005
2018-02-06T19:45:54.590Z,100995
2018-02-06T19:48:20.673Z,101002
2018-02-06T19:50:47.042Z,101006
2018-02-06T19:53:13.109Z,100999
2018-02-06T19:55:39.201Z,100993
2018-02-06T19:58:06.328Z,100996
2018-02-06T20:00:32.416Z,100986
2018-02-06T20:02:58.544Z,100998
2018-02-06T20:05:24.644Z,101003
2018-02-06T20:07:51.473Z,101002
2018-02-06T20:10:18.277Z,100994
2018-02-06T20:12:44.350Z,100999
2018-02-06T20:15:10.417Z,101003
2018-02-06T20:17:36.489Z,101010
2018-02-06T20:20:02.574Z,101019
2018-02-06T20:22:28.708Z,101015
2018-02-06T20:24:54.962Z,101024
2018-02-06T20:27:21.021Z,101021
2018-02-06T20:29:47.113Z,101022
2018-02-06T20:32:13.196Z,100150
2018-02-06T20:34:39.570Z,101013
2018-02-06T20:37:05.642Z,100694
2018-02-06T20:39:31.717Z,101020
2018-02-06T20:41:57.802Z,100989
2018-02-06T20:44:23.865Z,101018
2018-02-06T20:46:49.921Z,101027
2018-02-06T20:49:16.138Z,101019
2018-02-06T20:51:42.955Z,101015
2018-02-06T20:54:09.018Z,101017
2018-02-06T20:56:35.076Z,101022
2018-02-06T20:59:01.229Z,101021
2018-02-06T21:01:27.293Z,101018
2018-02-06T21:03:53.369Z,101014
2018-02-06T21:06:19.566Z,101014
2018-02-06T21:08:45.652Z,101017
2018-02-06T21:11:11.706Z,101009
2018-02-06T21:13:37.801Z,101008
2018-02-06T21:16:04.622Z,101012
2018-02-06T21:18:30.705Z,101005
2018-02-06T21:20:56.782Z,101006
2018-02-06T21:23:22.849Z,101004
2018-02-06T21:25:49.168Z,101006
2018-02-06T21:28:15.286Z,101007
2018-02-06T21:30:41.350Z,101004
2018-02-06T21:33:07.445Z,101004
2018-02-06T21:35:33.531Z,101013
2018-02-06T21:37:59.614Z,101003
2018-02-06T21:40:25.712Z,101003
2018-02-06T21:42:51.805Z,101007
2018-02-06T21:45:17.886Z,101008
2018-02-06T21:47:43.965Z,101006
2018-02-06T21:50:10.362Z,101006
2018-02-06T21:52:36.459Z,101005
2018-02-06T21:55:02.526Z,101015
2018-02-06T21:57:28.602Z,101018
2018-02-06T21:59:54.709Z,101012
2018-02-06T22:02:20.872Z,101011
2018-02-06T22:04:46.961Z,101010
2018-02-06T22:07:14.021Z,101009
2018-02-06T22:09:40.081Z,101011
2018-02-06T22:12:06.161Z,101013
2018-02-06T22:14:32.982Z,101008
2018-02-06T22:16:59.132Z,101010
2018-02-06T22:19:25.941Z,101005
2018-02-06T22:21:52.005Z,100999
2018-02-06T22:24:18.071Z,101003
2018-02-06T22:26:44.145Z,100996
2018-02-06T22:29:10.955Z,101007
2018-02-06T22:31:37.036Z,100999
2018-02-06T22:34:03.117Z,101003
2018-02-06T22:36:29.188Z,100994
2018-02-06T22:38:55.261Z,100991
2018-02-06T22:41:21.333Z,100996
2018-02-06T22:43:47.403Z,100998
2018-02-06T22:46:13.490Z,100988
2018-02-06T22:48:39.557Z,100988
2018-02-06T22:51:05.633Z,100991
2018-02-06T22:53:31.708Z,100994
2018-02-06T22:55:59.867Z,100987
2018-02-06T22:58:25.941Z,100989
2018-02-06T23:00:52.023Z,100982
2018-02-06T23:03:18.097Z,100997
2018-02-06T23:05:44.179Z,100984
2018-02-06T23:08:10.245Z,100983
2018-02-06T23:10:36.309Z,100982
2018-02-06T23:13:02.397Z,100994
2018-02-06T23:15:28.469Z,100991
2018-02-06T23:17:54.537Z,101001
2018-02-06T23:20:20.658Z,101003
2018-02-06T23:22:47.485Z,101004
2018-02-06T23:25:13.550Z,100997
2018-02-06T23:27:39.618Z,101008
2018-02-06T23:30:05.701Z,101002
2018-02-06T23:32:31.769Z,100995
2018-02-06T23:34:57.839Z,100991
2018-02-06T23:37:23.901Z,100988
2018-02-06T23:39:49.974Z,100990
2018-02-06T23:42:16.813Z,100993
2018-02-06T23:44:44.344Z,100994
2018-02-06T23:47:10.469Z,100982
2018-02-06T23:49:36.546Z,100979
2018-02-06T23:52:02.609Z,100974
2018-02-06T23:54:28.690Z,100969
2018-02-06T23:56:54.765Z,100967
2018-02-06T23:59:20.829Z,100005
